createdAt,value
2023-03-29T00:02:19.792Z,5.87
2023-03-29T00:04:47.242Z,5.90
2023-03-29T00:07:14.487Z,5.98
2023-03-29T00:09:42.627Z,5.81
2023-03-29T00:12:11.705Z,5.83
2023-03-29T00:14:38.675Z,5.68
2023-03-29T00:17:06.490Z,5.60
2023-03-29T00:19:35.895Z,5.74
2023-03-29T00:22:06.122Z,5.80
2023-03-29T00:24:33.246Z,5.85
2023-03-29T00:27:00.436Z,5.70
2023-03-29T00:29:27.541Z,5.67
2023-03-29T00:31:56.084Z,5.77
2023-03-29T00:34:24.359Z,5.79
2023-03-29T00:36:53.139Z,5.86
2023-03-29T00:39:21.277Z,5.89
2023-03-29T00:41:49.901Z,5.99
2023-03-29T00:44:54.370Z,5.89
2023-03-29T00:47:51.448Z,5.95
2023-03-29T00:50:29.759Z,6.01
2023-03-29T00:53:03.828Z,5.95
2023-03-29T00:55:45.586Z,5.83
2023-03-29T00:58:15.962Z,5.89
2023-03-29T01:00:52.256Z,5.95
2023-03-29T01:03:24.903Z,5.94
2023-03-29T01:05:58.498Z,5.84
2023-03-29T01:08:51.703Z,5.84
2023-03-29T01:11:24.205Z,5.86
2023-03-29T01:13:59.387Z,5.78
2023-03-29T01:16:29.040Z,5.75
2023-03-29T01:19:00.481Z,5.92
2023-03-29T01:21:33.392Z,5.87
2023-03-29T01:24:07.096Z,5.81
2023-03-29T01:27:12.642Z,5.84
2023-03-29T01:30:04.340Z,5.82
2023-03-29T01:32:42.519Z,5.75
2023-03-29T01:35:32.680Z,5.79
2023-03-29T01:38:22.858Z,5.86
2023-03-29T01:40:49.985Z,5.92
2023-03-29T01:43:36.860Z,5.74
2023-03-29T01:46:10.503Z,5.81
2023-03-29T01:48:59.907Z,5.69
2023-03-29T01:51:42.794Z,5.79
2023-03-29T01:54:20.872Z,5.72
2023-03-29T01:56:50.600Z,5.74
2023-03-29T01:59:23.031Z,5.78
2023-03-29T02:01:54.889Z,5.79
2023-03-29T02:04:27.985Z,5.87
2023-03-29T02:06:57.842Z,5.73
2023-03-29T02:09:24.831Z,5.71
2023-03-29T02:11:52.846Z,5.74
2023-03-29T02:14:20.127Z,5.87
2023-03-29T02:17:21.674Z,5.79
2023-03-29T02:19:55.146Z,5.88
2023-03-29T02:22:28.813Z,5.89
2023-03-29T02:24:59.275Z,5.98
2023-03-29T02:27:29.225Z,6.07
2023-03-29T02:29:58.440Z,6.03
2023-03-29T02:32:54.312Z,6.12
2023-03-29T02:35:34.322Z,6.09
2023-03-29T02:38:05.984Z,6.11
2023-03-29T02:40:34.860Z,6.21
2023-03-29T02:43:05.128Z,6.30
2023-03-29T02:45:33.178Z,6.33
2023-03-29T02:48:09.063Z,6.21
2023-03-29T02:50:39.962Z,5.97
2023-03-29T02:53:13.349Z,6.02
2023-03-29T02:55:42.083Z,6.01
2023-03-29T02:58:09.386Z,5.99
2023-03-29T03:00:42.576Z,6.06
2023-03-29T03:03:10.462Z,6.12
2023-03-29T03:05:38.526Z,6.05
2023-03-29T03:08:07.568Z,6.18
2023-03-29T03:10:35.539Z,5.93
2023-03-29T03:13:04.200Z,6.16
2023-03-29T03:15:35.895Z,6.15
2023-03-29T03:18:04.059Z,6.11
2023-03-29T03:20:32.195Z,6.16
2023-03-29T03:22:59.282Z,6.15
2023-03-29T03:25:26.510Z,6.23
2023-03-29T03:27:54.393Z,6.21
2023-03-29T03:30:24.149Z,6.27
2023-03-29T03:33:29.327Z,6.20
2023-03-29T03:36:29.240Z,6.21
2023-03-29T03:38:57.251Z,6.39
2023-03-29T03:41:26.199Z,6.41
2023-03-29T03:43:53.457Z,6.33
2023-03-29T03:46:20.740Z,6.32
2023-03-29T03:48:48.536Z,6.43
2023-03-29T03:51:27.993Z,6.38
2023-03-29T03:53:55.040Z,6.50
2023-03-29T03:56:34.439Z,6.49
2023-03-29T03:59:07.365Z,6.35
2023-03-29T04:01:53.000Z,6.44
2023-03-29T04:04:23.615Z,6.43
2023-03-29T04:07:02.882Z,6.44
2023-03-29T04:09:48.957Z,6.28
2023-03-29T04:12:34.633Z,6.56
2023-03-29T04:15:02.495Z,6.71
2023-03-29T04:17:31.993Z,6.70
2023-03-29T04:20:19.015Z,6.75
2023-03-29T04:22:46.222Z,6.65
2023-03-29T04:25:13.516Z,6.72
2023-03-29T04:27:50.602Z,6.77
2023-03-29T04:30:33.981Z,6.76
2023-03-29T04:33:11.318Z,6.90
2023-03-29T04:35:41.227Z,6.88
2023-03-29T04:38:12.669Z,7.04
2023-03-29T04:40:40.809Z,7.09
2023-03-29T04:43:17.805Z,7.24
2023-03-29T04:45:55.312Z,6.74
2023-03-29T04:48:48.769Z,7.13
2023-03-29T04:51:17.724Z,7.12
2023-03-29T04:53:45.569Z,6.79
2023-03-29T04:56:12.601Z,6.58
2023-03-29T04:59:08.434Z,6.91
2023-03-29T05:01:35.795Z,6.44
2023-03-29T05:04:03.499Z,7.03
2023-03-29T05:06:37.411Z,7.18
2023-03-29T05:09:07.739Z,7.06
2023-03-29T05:12:04.292Z,7.16
2023-03-29T05:14:42.400Z,7.03
2023-03-29T05:17:09.566Z,7.29
2023-03-29T05:19:37.507Z,7.24
2023-03-29T05:22:04.752Z,7.54
2023-03-29T05:24:32.661Z,7.58
2023-03-29T05:27:05.100Z,7.59
2023-03-29T05:29:34.773Z,7.66
2023-03-29T05:32:22.347Z,7.52
2023-03-29T05:34:49.369Z,7.46
2023-03-29T05:37:17.264Z,7.42
2023-03-29T05:39:52.631Z,7.43
2023-03-29T05:42:23.728Z,7.56
2023-03-29T05:44:55.120Z,7.65
2023-03-29T05:47:22.564Z,7.57
2023-03-29T05:49:50.488Z,7.65
2023-03-29T05:52:22.323Z,7.79
2023-03-29T05:54:49.278Z,7.83
2023-03-29T05:57:17.087Z,8.05
2023-03-29T05:59:44.390Z,7.98
2023-03-29T06:02:12.574Z,8.05
2023-03-29T06:04:45.026Z,8.16
2023-03-29T06:07:24.559Z,8.23
2023-03-29T06:10:10.653Z,8.09
2023-03-29T06:12:40.914Z,8.30
2023-03-29T06:15:09.090Z,8.24
2023-03-29T06:17:45.995Z,8.32
2023-03-29T06:20:14.481Z,8.19
2023-03-29T06:22:46.832Z,8.31
2023-03-29T06:25:15.684Z,8.33
2023-03-29T06:27:46.845Z,8.42
2023-03-29T06:30:16.482Z,8.28
2023-03-29T06:32:49.962Z,8.37
2023-03-29T06:35:43.761Z,8.57
2023-03-29T06:38:15.331Z,8.59
2023-03-29T06:41:07.624Z,8.55
2023-03-29T06:44:10.383Z,8.51
2023-03-29T06:46:49.096Z,8.36
2023-03-29T06:49:16.042Z,8.41
2023-03-29T06:52:03.277Z,8.47
2023-03-29T06:54:31.343Z,8.48
2023-03-29T06:57:05.449Z,8.47
2023-03-29T06:59:35.046Z,8.43
2023-03-29T07:02:13.287Z,8.50
2023-03-29T07:05:13.718Z,8.49
2023-03-29T07:07:55.264Z,8.53
2023-03-29T07:10:41.469Z,8.64
2023-03-29T07:13:34.446Z,8.66
2023-03-29T07:16:04.944Z,8.61
2023-03-29T07:18:50.357Z,8.86
2023-03-29T07:21:37.858Z,8.70
2023-03-29T07:24:06.899Z,8.79
2023-03-29T07:26:36.001Z,8.73
2023-03-29T07:29:03.094Z,8.72
2023-03-29T07:31:30.829Z,8.61
2023-03-29T07:34:17.853Z,8.27
2023-03-29T07:36:45.327Z,8.41
2023-03-29T07:39:15.747Z,8.56
2023-03-29T07:41:57.816Z,8.32
2023-03-29T07:44:25.084Z,8.42
2023-03-29T07:46:52.328Z,8.42
2023-03-29T07:49:20.995Z,8.62
2023-03-29T07:51:49.420Z,8.34
2023-03-29T07:54:16.450Z,8.71
2023-03-29T07:57:03.922Z,8.77
2023-03-29T07:59:39.336Z,8.67
2023-03-29T08:02:13.585Z,8.65
2023-03-29T08:04:49.887Z,8.53
2023-03-29T08:07:21.646Z,8.68
2023-03-29T08:10:04.262Z,8.89
2023-03-29T08:12:49.294Z,8.91
2023-03-29T08:15:17.491Z,8.93
2023-03-29T08:17:45.138Z,9.13
2023-03-29T08:20:16.356Z,9.00
2023-03-29T08:22:46.183Z,9.06
2023-03-29T08:25:15.785Z,8.87
2023-03-29T08:27:46.884Z,8.99
2023-03-29T08:30:18.355Z,8.89
2023-03-29T08:32:48.663Z,9.14
2023-03-29T08:35:18.034Z,9.08
2023-03-29T08:37:59.746Z,8.97
2023-03-29T08:40:30.126Z,9.18
2023-03-29T08:43:12.555Z,9.12
2023-03-29T08:46:06.410Z,9.23
2023-03-29T08:49:02.734Z,9.48
2023-03-29T08:51:50.452Z,9.45
2023-03-29T08:54:25.113Z,9.48
2023-03-29T08:57:22.833Z,9.54
2023-03-29T08:59:56.212Z,9.28
2023-03-29T09:02:28.766Z,9.34
2023-03-29T09:05:09.426Z,9.49
2023-03-29T09:07:47.615Z,9.54
2023-03-29T09:10:18.345Z,9.37
2023-03-29T09:13:09.481Z,9.25
2023-03-29T09:16:06.837Z,9.36
2023-03-29T09:19:17.189Z,9.48
2023-03-29T09:21:59.362Z,9.43
2023-03-29T09:25:00.727Z,9.31
2023-03-29T09:27:54.616Z,9.30
2023-03-29T09:30:50.205Z,9.21
2023-03-29T09:33:25.025Z,9.19
2023-03-29T09:36:29.246Z,9.13
2023-03-29T09:38:57.037Z,9.27
2023-03-29T09:41:43.431Z,9.16
2023-03-29T09:44:28.123Z,8.98
2023-03-29T09:47:10.024Z,9.09
2023-03-29T09:49:47.462Z,9.22
2023-03-29T09:52:17.143Z,9.13
2023-03-29T09:54:52.601Z,9.23
2023-03-29T09:57:22.396Z,9.39
2023-03-29T09:59:51.791Z,9.39
2023-03-29T10:02:21.216Z,9.34
2023-03-29T10:05:04.138Z,9.51
2023-03-29T10:07:44.783Z,9.51
2023-03-29T10:10:27.449Z,9.48
2023-03-29T10:12:59.582Z,9.51
2023-03-29T10:15:30.869Z,9.46
2023-03-29T10:18:05.922Z,9.29
2023-03-29T10:20:36.890Z,9.17
2023-03-29T10:23:08.058Z,9.34
2023-03-29T10:25:43.035Z,9.45
2023-03-29T10:28:18.760Z,9.17
2023-03-29T10:30:52.522Z,9.00
2023-03-29T10:33:22.103Z,8.75
2023-03-29T10:35:49.342Z,8.72
2023-03-29T10:38:19.367Z,9.06
2023-03-29T10:40:51.905Z,9.04
2023-03-29T10:43:26.224Z,8.93
2023-03-29T10:46:06.009Z,9.05
2023-03-29T10:48:36.102Z,8.72
2023-03-29T10:51:05.772Z,8.95
2023-03-29T10:53:35.334Z,8.96
2023-03-29T10:56:08.312Z,8.80
2023-03-29T10:59:08.766Z,8.63
2023-03-29T11:02:13.969Z,8.60
2023-03-29T11:05:00.316Z,8.51
2023-03-29T11:07:50.952Z,8.59
2023-03-29T11:10:53.077Z,8.54
2023-03-29T11:13:41.258Z,8.52
2023-03-29T11:16:30.039Z,8.65
2023-03-29T11:19:02.831Z,8.84
2023-03-29T11:22:07.132Z,8.80
2023-03-29T11:24:59.950Z,8.80
2023-03-29T11:28:03.811Z,8.54
2023-03-29T11:30:34.042Z,8.31
2023-03-29T11:33:07.197Z,8.44
2023-03-29T11:36:05.031Z,8.22
2023-03-29T11:38:37.876Z,8.46
2023-03-29T11:41:16.035Z,8.33
2023-03-29T11:43:55.198Z,8.47
2023-03-29T11:46:28.933Z,8.45
2023-03-29T11:49:17.126Z,8.60
2023-03-29T11:51:56.971Z,8.37
2023-03-29T11:54:41.213Z,8.37
2023-03-29T11:57:32.149Z,8.53
2023-03-29T12:00:02.784Z,8.51
2023-03-29T12:02:49.614Z,8.42
2023-03-29T12:05:24.557Z,8.58
2023-03-29T12:08:16.710Z,8.48
2023-03-29T12:10:56.763Z,8.47
2023-03-29T12:13:32.432Z,8.45
2023-03-29T12:16:02.623Z,8.41
2023-03-29T12:18:36.990Z,8.32
2023-03-29T12:21:12.275Z,8.44
2023-03-29T12:23:42.457Z,8.45
2023-03-29T12:26:17.250Z,8.58
2023-03-29T12:29:07.226Z,8.52
2023-03-29T12:32:11.614Z,8.63
2023-03-29T12:34:48.051Z,8.65
2023-03-29T12:37:41.544Z,8.65
2023-03-29T12:40:28.660Z,8.63
2023-03-29T12:43:31.576Z,8.45
2023-03-29T12:46:27.366Z,8.42
2023-03-29T12:49:05.929Z,8.46
2023-03-29T12:51:35.254Z,8.36
2023-03-29T12:54:21.993Z,8.54
2023-03-29T12:56:52.213Z,8.34
2023-03-29T12:59:47.059Z,8.34
2023-03-29T13:02:14.156Z,8.27
2023-03-29T13:04:44.338Z,8.11
2023-03-29T13:07:27.540Z,8.47
2023-03-29T13:10:00.003Z,8.54
2023-03-29T13:12:35.980Z,8.45
2023-03-29T13:15:05.974Z,8.21
2023-03-29T13:18:00.266Z,8.27
2023-03-29T13:20:33.185Z,8.23
2023-03-29T13:23:31.930Z,8.27
2023-03-29T13:26:19.135Z,8.40
2023-03-29T13:29:01.208Z,8.31
2023-03-29T13:31:54.250Z,8.28
2023-03-29T13:34:23.882Z,8.22
2023-03-29T13:36:57.023Z,8.15
2023-03-29T13:39:29.515Z,8.15
2023-03-29T13:42:28.939Z,8.43
2023-03-29T13:45:13.316Z,8.37
2023-03-29T13:47:48.850Z,8.34
2023-03-29T13:50:35.029Z,8.30
2023-03-29T13:53:20.917Z,8.17
2023-03-29T13:55:51.263Z,8.16
2023-03-29T13:58:27.486Z,8.15
2023-03-29T14:01:29.597Z,8.28
2023-03-29T14:03:57.689Z,8.12
2023-03-29T14:06:30.000Z,8.28
2023-03-29T14:08:57.073Z,8.17
2023-03-29T14:11:29.968Z,8.28
2023-03-29T14:13:59.464Z,8.21
2023-03-29T14:16:36.975Z,8.32
2023-03-29T14:19:06.654Z,8.19
2023-03-29T14:21:34.162Z,7.92
2023-03-29T14:24:02.758Z,8.15
2023-03-29T14:26:32.468Z,8.24
2023-03-29T14:29:01.446Z,8.23
2023-03-29T14:31:36.828Z,8.27
2023-03-29T14:34:06.877Z,8.16
2023-03-29T14:36:34.526Z,8.12
2023-03-29T14:39:17.551Z,8.02
2023-03-29T14:41:53.246Z,8.23
2023-03-29T14:44:27.525Z,8.21
2023-03-29T14:46:55.422Z,8.08
2023-03-29T14:49:23.658Z,8.20
2023-03-29T14:51:52.225Z,8.11
2023-03-29T14:54:32.770Z,8.09
2023-03-29T14:57:03.598Z,8.07
2023-03-29T14:59:41.440Z,7.76
2023-03-29T15:02:27.280Z,7.90
2023-03-29T15:04:56.754Z,8.05
2023-03-29T15:07:25.960Z,8.03
2023-03-29T15:09:53.799Z,8.09
2023-03-29T15:12:21.243Z,7.96
2023-03-29T15:14:52.183Z,8.15
2023-03-29T15:17:39.435Z,8.14
2023-03-29T15:20:32.025Z,8.01
2023-03-29T15:23:09.735Z,8.09
2023-03-29T15:25:51.969Z,8.18
2023-03-29T15:28:46.897Z,8.15
2023-03-29T15:31:19.381Z,8.06
2023-03-29T15:33:47.520Z,8.07
2023-03-29T15:36:15.600Z,8.09
2023-03-29T15:38:45.076Z,8.17
2023-03-29T15:41:14.185Z,7.99
2023-03-29T15:43:42.112Z,8.09
2023-03-29T15:46:12.070Z,8.10
2023-03-29T15:48:39.061Z,8.22
2023-03-29T15:51:06.912Z,8.27
2023-03-29T15:53:35.617Z,8.14
2023-03-29T15:56:05.652Z,8.16
2023-03-29T15:58:34.551Z,8.20
2023-03-29T16:01:19.341Z,8.15
2023-03-29T16:03:48.089Z,8.18
2023-03-29T16:06:16.818Z,8.23
2023-03-29T16:08:43.889Z,8.21
2023-03-29T16:11:11.735Z,8.17
2023-03-29T16:13:38.869Z,8.08
2023-03-29T16:16:06.797Z,8.07
2023-03-29T16:18:34.118Z,8.18
2023-03-29T16:21:01.127Z,8.23
2023-03-29T16:23:28.107Z,8.39
2023-03-29T16:25:55.997Z,8.30
2023-03-29T16:28:23.008Z,8.05
2023-03-29T16:30:49.995Z,8.32
2023-03-29T16:33:16.976Z,8.41
2023-03-29T16:35:44.098Z,8.38
2023-03-29T16:38:11.173Z,8.35
2023-03-29T16:40:38.487Z,8.29
2023-03-29T16:43:05.844Z,8.10
2023-03-29T16:45:32.919Z,7.89
2023-03-29T16:47:59.920Z,8.12
2023-03-29T16:50:26.998Z,8.14
2023-03-29T16:52:54.205Z,8.19
2023-03-29T16:55:21.220Z,8.30
2023-03-29T16:57:48.958Z,8.32
2023-03-29T17:00:18.696Z,8.28
2023-03-29T17:02:49.775Z,8.21
2023-03-29T17:05:18.918Z,8.35
2023-03-29T17:07:46.937Z,8.26
2023-03-29T17:10:14.408Z,8.19
2023-03-29T17:12:41.614Z,8.16
2023-03-29T17:15:09.569Z,8.16
2023-03-29T17:17:37.875Z,8.12
2023-03-29T17:20:08.735Z,8.18
2023-03-29T17:22:36.199Z,8.11
2023-03-29T17:25:06.347Z,8.10
2023-03-29T17:27:34.917Z,8.16
2023-03-29T17:30:02.318Z,8.27
2023-03-29T17:32:31.463Z,8.19
2023-03-29T17:34:59.575Z,8.29
2023-03-29T17:37:27.921Z,8.41
2023-03-29T17:39:54.976Z,8.45
2023-03-29T17:42:21.900Z,8.42
2023-03-29T17:44:48.961Z,8.44
2023-03-29T17:47:15.992Z,8.51
2023-03-29T17:49:42.910Z,8.57
2023-03-29T17:52:09.870Z,8.52
2023-03-29T17:54:36.826Z,8.56
2023-03-29T17:57:04.580Z,8.58
2023-03-29T17:59:31.616Z,8.45
2023-03-29T18:02:00.195Z,8.47
2023-03-29T18:04:27.204Z,8.53
2023-03-29T18:06:55.087Z,8.46
2023-03-29T18:09:22.195Z,8.48
2023-03-29T18:11:49.234Z,8.38
2023-03-29T18:14:16.478Z,8.37
2023-03-29T18:16:43.619Z,8.49
2023-03-29T18:19:10.908Z,8.56
2023-03-29T18:21:37.847Z,8.44
2023-03-29T18:24:04.978Z,8.43
2023-03-29T18:26:32.879Z,8.44
2023-03-29T18:28:59.846Z,8.02
2023-03-29T18:31:28.125Z,8.45
2023-03-29T18:33:55.108Z,8.47
2023-03-29T18:36:22.200Z,8.41
2023-03-29T18:38:49.256Z,8.41
2023-03-29T18:41:16.369Z,8.48
2023-03-29T18:43:44.334Z,8.30
2023-03-29T18:46:11.406Z,8.40
2023-03-29T18:48:39.170Z,8.16
2023-03-29T18:51:07.805Z,8.23
2023-03-29T18:53:35.686Z,8.36
2023-03-29T18:56:04.567Z,8.46
2023-03-29T18:58:32.297Z,8.56
2023-03-29T19:01:04.301Z,8.35
2023-03-29T19:03:32.704Z,8.48
2023-03-29T19:06:00.080Z,8.48
2023-03-29T19:08:27.570Z,8.50
2023-03-29T19:11:01.152Z,8.44
2023-03-29T19:13:28.199Z,8.56
2023-03-29T19:15:55.258Z,8.48
2023-03-29T19:18:22.415Z,8.45
2023-03-29T19:20:51.318Z,8.52
2023-03-29T19:23:18.440Z,8.54
2023-03-29T19:25:56.567Z,8.49
2023-03-29T19:28:25.110Z,8.59
2023-03-29T19:30:52.377Z,8.56
2023-03-29T19:33:20.059Z,8.38
2023-03-29T19:35:49.563Z,8.49
2023-03-29T19:38:16.632Z,8.40
2023-03-29T19:40:51.490Z,8.50
2023-03-29T19:43:20.784Z,8.38
2023-03-29T19:45:49.936Z,8.40
2023-03-29T19:50:48.316Z,8.43
2023-03-29T19:53:15.407Z,8.30
2023-03-29T19:55:44.322Z,8.40
2023-03-29T19:58:11.382Z,8.43
2023-03-29T20:00:39.086Z,8.27
2023-03-29T20:03:10.169Z,8.41
2023-03-29T20:05:38.926Z,8.36
2023-03-29T20:08:06.895Z,8.31
2023-03-29T20:10:35.355Z,8.39
2023-03-29T20:13:03.216Z,8.35
2023-03-29T20:15:30.513Z,8.02
2023-03-29T20:17:59.917Z,8.36
2023-03-29T20:20:27.566Z,8.32
2023-03-29T20:22:58.570Z,8.34
2023-03-29T20:25:25.995Z,8.32
2023-03-29T20:27:53.328Z,8.41
2023-03-29T20:30:20.701Z,8.41
2023-03-29T20:32:47.838Z,8.34
2023-03-29T20:35:14.863Z,8.38
2023-03-29T20:37:41.880Z,8.37
2023-03-29T20:40:11.310Z,8.29
2023-03-29T20:42:39.628Z,8.38
2023-03-29T20:45:08.079Z,8.35
2023-03-29T20:47:50.540Z,8.12
2023-03-29T20:50:19.410Z,8.25
2023-03-29T20:52:46.777Z,8.15
2023-03-29T20:55:16.819Z,8.23
2023-03-29T20:57:43.766Z,8.28
2023-03-29T21:00:13.856Z,8.28
2023-03-29T21:02:41.023Z,8.28
2023-03-29T21:05:08.783Z,8.24
2023-03-29T21:07:36.527Z,8.23
2023-03-29T21:10:04.163Z,8.28
2023-03-29T21:12:31.627Z,8.18
2023-03-29T21:14:58.585Z,8.22
2023-03-29T21:17:25.616Z,8.24
2023-03-29T21:19:53.312Z,8.22
2023-03-29T21:22:20.250Z,8.20
2023-03-29T21:24:47.184Z,8.17
2023-03-29T21:27:14.193Z,8.24
2023-03-29T21:29:41.642Z,8.19
2023-03-29T21:32:09.166Z,7.95
2023-03-29T21:34:36.274Z,8.06
2023-03-29T21:37:03.306Z,8.16
2023-03-29T21:39:30.506Z,8.09
2023-03-29T21:41:57.466Z,7.99
2023-03-29T21:44:24.548Z,7.91
2023-03-29T21:46:51.625Z,7.99
2023-03-29T21:49:18.726Z,7.98
2023-03-29T21:51:46.526Z,8.03
2023-03-29T21:54:13.547Z,8.10
2023-03-29T21:56:40.553Z,8.17
2023-03-29T21:59:07.507Z,8.10
2023-03-29T22:01:34.584Z,8.10
2023-03-29T22:04:01.556Z,8.16
2023-03-29T22:06:28.638Z,8.23
2023-03-29T22:08:55.666Z,8.13
2023-03-29T22:11:23.428Z,8.27
2023-03-29T22:13:52.451Z,8.27
2023-03-29T22:16:19.495Z,8.22
2023-03-29T22:18:49.752Z,8.23
2023-03-29T22:21:25.450Z,7.76
2023-03-29T22:23:55.537Z,8.17
2023-03-29T22:26:24.949Z,8.21
2023-03-29T22:28:51.915Z,8.23
2023-03-29T22:31:21.328Z,8.29
2023-03-29T22:33:48.985Z,8.14
2023-03-29T22:36:24.230Z,8.03
2023-03-29T22:38:51.671Z,8.00
2023-03-29T22:41:20.390Z,8.00
2023-03-29T22:43:47.565Z,7.99
2023-03-29T22:46:14.819Z,7.87
2023-03-29T22:48:41.878Z,7.78
2023-03-29T22:51:08.821Z,7.62
2023-03-29T22:53:35.959Z,7.68
2023-03-29T22:56:04.212Z,7.81
2023-03-29T22:58:31.334Z,7.92
2023-03-29T23:00:58.458Z,7.50
2023-03-29T23:03:25.570Z,7.80
2023-03-29T23:05:55.231Z,7.91
2023-03-29T23:08:25.286Z,7.93
2023-03-29T23:10:52.876Z,8.02
2023-03-29T23:13:24.216Z,8.10
2023-03-29T23:15:53.892Z,8.02
2023-03-29T23:18:22.353Z,7.96
2023-03-29T23:20:51.874Z,8.03
2023-03-29T23:23:20.530Z,8.11
2023-03-29T23:25:48.760Z,8.11
2023-03-29T23:28:21.837Z,8.08
2023-03-29T23:31:03.083Z,8.20
2023-03-29T23:33:35.964Z,8.18
2023-03-29T23:36:06.106Z,8.30
2023-03-29T23:38:34.521Z,8.33
2023-03-29T23:41:03.916Z,8.24
2023-03-29T23:43:33.903Z,8.31
2023-03-29T23:46:03.380Z,8.29
2023-03-29T23:48:30.621Z,8.35
2023-03-29T23:50:57.576Z,8.39
2023-03-29T23:53:28.528Z,8.35
2023-03-29T23:56:00.573Z,8.30
2023-03-29T23:58:28.871Z,8.15
